Airfield :
LOGIN :

Register | Disclaimer

   EN    FR    IT 

 










Legend :    VFR   Marginal VFR   IFR   Intensive IFR   Very Intensive IFR
Visi :
Ceiling :
>= 8 km
>= 3000ft
5 to 8 km
1000 to 3000 ft
1500m to 5 km
500 to 1000 ft
800 to 1500m
200 to 500 ft
< 800m
< 200 ft
Symbols :   Thunderstorms  Fog  Heavy snow  Heavy precipitations  Wind > 20 kt
SIGMETs :     Misc.  Thunderstorms  Icing  Turbulence  Mountain Waves  Volcanic Ashes






- Airport Elevation : 909 ft
- IATA code : KSF


EDVK - Kassel Calden

CURRENT METAR :
  • 190750Z 35007KT 9000 SCT007 BKN013 14/13 Q1016

EXPIRED METARs :
  • 190720Z 01005KT 310V050 8000 -RA SCT004 BKN007 13/13 Q1016
  • 190650Z 33004KT 290V010 2600 -RA BR SCT004 BKN008 13/13 Q1015
  • 190620Z 31008KT 2100 -RA BR SCT005 BKN009 13/13 Q1015
  • 190550Z 32004KT 270V010 4300 -RA BR BKN006 13/13 Q1015
  • 190520Z VRB03KT 9000 BKN006 14/13 Q1015
  • 190450Z AUTO 36003KT 310V060 7000 // VV/// 14/13 Q1014
  • 190420Z AUTO 36004KT 280V070 7000 // BKN006/// 14/13 Q1014
  • 190350Z AUTO 33004KT 250V060 9999 // SCT004/// BKN007/// 14/13 Q1013
  • 190320Z AUTO 33004KT 280V020 9999 // SCT007/// 14/13 Q1013

TAF AMD TAF EDVK
Valid from the 19 at 06:00 until the 19 at 15:00 UTC


190634Z 1906/1915 33007KT 6000 BKN005
TEMPO 1906/1912 2000 RA
BECMG 1913/1915 BKN015



MET'MAP, your aeronautical weather chart ! - Copyright ORBIFLY December 2007 - Disclaimer

ORBIFLY MET'MAP TEAM :

Programming & Development : Alexandra Zaïnal
Original concept : Baudouin d'Aumeries
Technical & hardware support : Manuel Goepfert
Assistance : Marc-Olivier Méhu




SOURCES & CREDITS :

   NOAA